createdAt,value
2023-04-12T00:06:10.389Z,5.70
2023-04-12T00:16:15.939Z,5.70
2023-04-12T00:26:21.801Z,5.60
2023-04-12T00:36:26.881Z,5.60
2023-04-12T00:46:32.068Z,5.50
2023-04-12T00:56:36.911Z,5.40
2023-04-12T01:07:02.393Z,5.30
2023-04-12T01:17:10.022Z,5.30
2023-04-12T01:27:29.804Z,5.30
2023-04-12T01:37:33.430Z,5.20
2023-04-12T01:47:38.327Z,5.20
2023-04-12T01:57:45.597Z,5.20
2023-04-12T02:07:51.826Z,5.10
2023-04-12T02:17:55.360Z,5.10
2023-04-12T02:28:00.500Z,5.00
2023-04-12T02:38:07.979Z,4.90
2023-04-12T02:48:14.776Z,4.90
2023-04-12T02:58:20.092Z,4.90
2023-04-12T03:08:27.755Z,4.80
2023-04-12T03:18:34.039Z,4.80
2023-04-12T03:28:38.982Z,4.80
2023-04-12T03:38:43.531Z,4.80
2023-04-12T03:48:50.930Z,4.80
2023-04-12T03:58:56.095Z,4.80
2023-04-12T04:09:01.888Z,4.70
2023-04-12T04:19:08.737Z,4.70
2023-04-12T04:29:13.686Z,4.80
2023-04-12T04:39:17.344Z,4.90
2023-04-12T04:49:23.062Z,4.90
2023-04-12T04:59:26.665Z,4.90
2023-04-12T05:09:37.187Z,4.90
2023-04-12T05:19:41.533Z,5.00
2023-04-12T05:29:47.220Z,5.20
2023-04-12T05:39:53.453Z,5.20
2023-04-12T05:49:59.282Z,5.30
2023-04-12T06:00:07.017Z,5.40
2023-04-12T06:10:18.493Z,5.40
2023-04-12T06:20:28.164Z,5.60
2023-04-12T06:30:33.676Z,5.70
2023-04-12T06:40:37.320Z,5.90
2023-04-12T06:50:42.183Z,6.20
2023-04-12T07:00:45.550Z,6.60
2023-04-12T07:10:55.016Z,7.30
2023-04-12T07:20:59.336Z,7.70
2023-04-12T07:31:07.439Z,8.20
2023-04-12T07:41:11.282Z,7.80
2023-04-12T07:51:16.070Z,7.80
2023-04-12T08:01:19.564Z,7.90
2023-04-12T08:11:24.341Z,8.40
2023-04-12T08:21:30.136Z,9.10
2023-04-12T08:31:35.210Z,9.90
2023-04-12T08:41:40.525Z,10.80
2023-04-12T08:51:45.851Z,11.70
2023-04-12T09:01:49.977Z,13.90
2023-04-12T09:12:08.841Z,15.20
2023-04-12T09:22:12.256Z,16.90
2023-04-12T09:32:18.060Z,15.50
2023-04-12T09:42:33.434Z,18.10
2023-04-12T09:52:40.357Z,16.00
2023-04-12T10:02:46.713Z,16.00
2023-04-12T10:12:52.871Z,22.70
2023-04-12T10:22:56.362Z,28.80
2023-04-12T10:33:20.616Z,20.80
2023-04-12T10:43:30.467Z,16.90
2023-04-12T10:53:35.272Z,14.80
2023-04-12T11:04:15.501Z,13.50
2023-04-12T11:14:46.922Z,13.20
2023-04-12T11:24:52.460Z,12.90
2023-04-12T11:34:59.369Z,12.50
2023-04-12T11:45:15.848Z,12.50
2023-04-12T11:55:21.839Z,12.80
2023-04-12T12:05:26.092Z,13.10
2023-04-12T12:15:32.579Z,13.60
2023-04-12T12:25:36.159Z,14.20
2023-04-12T12:35:41.130Z,14.50
2023-04-12T12:45:44.659Z,14.50
2023-04-12T12:55:49.478Z,14.70
2023-04-12T13:05:53.340Z,14.00
2023-04-12T13:15:58.168Z,13.50
2023-04-12T13:26:01.662Z,13.40
2023-04-12T13:36:07.302Z,14.00
2023-04-12T13:46:12.053Z,13.90
2023-04-12T13:56:17.079Z,14.70
2023-04-12T14:06:20.603Z,14.60
2023-04-12T14:16:26.410Z,14.40
2023-04-12T14:26:29.820Z,14.30
2023-04-12T14:36:34.783Z,14.90
2023-04-12T14:46:38.233Z,15.10
2023-04-12T14:56:50.000Z,15.30
2023-04-12T15:06:56.211Z,15.40
2023-04-12T15:17:01.147Z,14.90
2023-04-12T15:27:07.204Z,14.00
2023-04-12T15:37:12.143Z,13.40
2023-04-12T15:47:15.598Z,12.40
2023-04-12T15:57:21.336Z,11.60
2023-04-12T16:07:25.679Z,11.00
2023-04-12T16:17:30.790Z,10.50
2023-04-12T16:27:35.746Z,10.20
2023-04-12T16:37:40.535Z,9.80
2023-04-12T16:47:46.982Z,9.30
2023-04-12T16:57:53.838Z,8.80
2023-04-12T17:07:58.101Z,8.30
2023-04-12T17:18:05.605Z,7.80
2023-04-12T17:28:09.992Z,7.40
2023-04-12T17:38:15.785Z,6.80
2023-04-12T17:48:19.977Z,6.30
2023-04-12T17:58:25.764Z,5.90
2023-04-12T18:08:30.270Z,5.50
2023-04-12T18:18:36.199Z,5.00
2023-04-12T18:28:41.046Z,4.90
2023-04-12T18:38:49.797Z,4.50
2023-04-12T18:48:54.840Z,4.20
2023-04-12T18:59:01.697Z,3.80
2023-04-12T19:09:08.319Z,3.60
2023-04-12T19:19:13.991Z,3.40
2023-04-12T19:29:19.739Z,3.10
2023-04-12T19:39:27.033Z,2.90
2023-04-12T19:49:33.392Z,2.70
2023-04-12T19:59:39.783Z,2.40
2023-04-12T20:09:44.923Z,2.10
2023-04-12T20:19:50.721Z,1.90
2023-04-12T20:29:54.923Z,1.70
2023-04-12T20:40:00.981Z,1.60
2023-04-12T20:50:05.381Z,1.60
2023-04-12T21:00:18.064Z,1.60
2023-04-12T21:10:22.383Z,1.50
2023-04-12T21:20:27.464Z,1.20
2023-04-12T21:30:31.187Z,1.00
2023-04-12T21:40:36.129Z,0.90
2023-04-12T21:50:46.021Z,0.70
2023-04-12T22:00:50.916Z,0.60
2023-04-12T22:10:55.137Z,0.40
2023-04-12T22:21:04.030Z,0.30
2023-04-12T22:31:08.650Z,0.10
2023-04-12T22:41:16.950Z,0.00
2023-04-12T22:51:20.293Z,-0.10
2023-04-12T23:01:25.286Z,-0.20
2023-04-12T23:11:29.123Z,-0.30
2023-04-12T23:21:35.027Z,-0.20
2023-04-12T23:31:38.440Z,-0.10
2023-04-12T23:41:43.187Z,0.10
2023-04-12T23:51:46.824Z,0.00
